sensor_id;sensor_type;location;lat;lon;timestamp;temperature;humidity
9984;DHT22;16737;50.932;6.780;2023-03-04T00:01:01;6.30;87.00
9984;DHT22;16737;50.932;6.780;2023-03-04T00:03:28;6.30;87.20
9984;DHT22;16737;50.932;6.780;2023-03-04T00:05:55;6.30;87.20
9984;DHT22;16737;50.932;6.780;2023-03-04T00:08:22;6.30;87.20
9984;DHT22;16737;50.932;6.780;2023-03-04T00:10:49;6.30;87.30
9984;DHT22;16737;50.932;6.780;2023-03-04T00:13:16;6.30;87.40
9984;DHT22;16737;50.932;6.780;2023-03-04T00:15:45;6.30;87.40
9984;DHT22;16737;50.932;6.780;2023-03-04T00:18:13;6.30;87.40
9984;DHT22;16737;50.932;6.780;2023-03-04T00:20:40;6.30;87.50
9984;DHT22;16737;50.932;6.780;2023-03-04T00:23:08;6.30;87.50
9984;DHT22;16737;50.932;6.780;2023-03-04T00:25:35;6.30;87.60
9984;DHT22;16737;50.932;6.780;2023-03-04T00:28:02;6.30;87.60
9984;DHT22;16737;50.932;6.780;2023-03-04T00:30:29;6.30;87.60
9984;DHT22;16737;50.932;6.780;2023-03-04T00:32:56;6.30;87.70
9984;DHT22;16737;50.932;6.780;2023-03-04T00:35:25;6.30;87.70
9984;DHT22;16737;50.932;6.780;2023-03-04T00:37:54;6.30;88.50
9984;DHT22;16737;50.932;6.780;2023-03-04T00:40:21;6.30;87.70
9984;DHT22;16737;50.932;6.780;2023-03-04T00:42:49;6.30;87.80
9984;DHT22;16737;50.932;6.780;2023-03-04T00:45:16;6.30;87.80
9984;DHT22;16737;50.932;6.780;2023-03-04T00:47:43;6.30;87.80
9984;DHT22;16737;50.932;6.780;2023-03-04T00:50:11;6.30;87.80
9984;DHT22;16737;50.932;6.780;2023-03-04T00:52:39;6.30;87.80
9984;DHT22;16737;50.932;6.780;2023-03-04T00:55:07;6.40;88.00
9984;DHT22;16737;50.932;6.780;2023-03-04T00:57:35;6.30;87.90
9984;DHT22;16737;50.932;6.780;2023-03-04T01:00:02;6.40;88.00
9984;DHT22;16737;50.932;6.780;2023-03-04T01:02:30;6.40;88.00
9984;DHT22;16737;50.932;6.780;2023-03-04T01:04:57;6.40;87.90
9984;DHT22;16737;50.932;6.780;2023-03-04T01:07:24;6.40;88.00
9984;DHT22;16737;50.932;6.780;2023-03-04T01:09:52;6.40;88.00
9984;DHT22;16737;50.932;6.780;2023-03-04T01:12:19;6.40;88.00
9984;DHT22;16737;50.932;6.780;2023-03-04T01:14:46;6.40;88.00
9984;DHT22;16737;50.932;6.780;2023-03-04T01:17:13;6.40;87.90
9984;DHT22;16737;50.932;6.780;2023-03-04T01:19:40;6.50;88.00
9984;DHT22;16737;50.932;6.780;2023-03-04T01:22:07;6.50;88.10
9984;DHT22;16737;50.932;6.780;2023-03-04T01:24:35;6.50;88.00
9984;DHT22;16737;50.932;6.780;2023-03-04T01:27:03;6.50;87.90
9984;DHT22;16737;50.932;6.780;2023-03-04T01:29:30;6.50;87.90
9984;DHT22;16737;50.932;6.780;2023-03-04T01:31:57;6.50;87.90
9984;DHT22;16737;50.932;6.780;2023-03-04T01:34:24;6.50;87.90
9984;DHT22;16737;50.932;6.780;2023-03-04T01:36:51;6.50;87.90
9984;DHT22;16737;50.932;6.780;2023-03-04T01:39:18;6.50;87.90
9984;DHT22;16737;50.932;6.780;2023-03-04T01:41:45;6.50;88.00
9984;DHT22;16737;50.932;6.780;2023-03-04T01:44:14;6.50;88.00
9984;DHT22;16737;50.932;6.780;2023-03-04T01:46:45;6.50;88.00
9984;DHT22;16737;50.932;6.780;2023-03-04T01:49:15;6.50;88.10
9984;DHT22;16737;50.932;6.780;2023-03-04T01:51:43;6.50;88.00
9984;DHT22;16737;50.932;6.780;2023-03-04T01:54:14;6.50;88.10
9984;DHT22;16737;50.932;6.780;2023-03-04T01:56:44;6.50;88.00
9984;DHT22;16737;50.932;6.780;2023-03-04T01:59:14;6.50;88.20
9984;DHT22;16737;50.932;6.780;2023-03-04T02:01:45;6.50;88.10
9984;DHT22;16737;50.932;6.780;2023-03-04T02:04:15;6.50;88.10
9984;DHT22;16737;50.932;6.780;2023-03-04T02:06:43;6.50;88.10
9984;DHT22;16737;50.932;6.780;2023-03-04T02:09:12;6.50;88.00
9984;DHT22;16737;50.932;6.780;2023-03-04T02:11:40;6.40;88.00
9984;DHT22;16737;50.932;6.780;2023-03-04T02:14:08;6.40;88.00
9984;DHT22;16737;50.932;6.780;2023-03-04T02:16:37;6.50;88.10
9984;DHT22;16737;50.932;6.780;2023-03-04T02:19:06;6.50;88.20
9984;DHT22;16737;50.932;6.780;2023-03-04T02:21:39;6.40;88.20
9984;DHT22;16737;50.932;6.780;2023-03-04T02:24:13;6.40;88.10
9984;DHT22;16737;50.932;6.780;2023-03-04T02:26:46;6.40;88.40
9984;DHT22;16737;50.932;6.780;2023-03-04T02:29:14;6.40;88.20
9984;DHT22;16737;50.932;6.780;2023-03-04T02:31:44;6.40;88.30
9984;DHT22;16737;50.932;6.780;2023-03-04T02:34:14;6.40;88.30
9984;DHT22;16737;50.932;6.780;2023-03-04T02:36:43;6.50;88.40
9984;DHT22;16737;50.932;6.780;2023-03-04T02:39:13;6.40;88.30
9984;DHT22;16737;50.932;6.780;2023-03-04T02:41:49;6.40;88.40
9984;DHT22;16737;50.932;6.780;2023-03-04T02:44:19;6.50;88.50
9984;DHT22;16737;50.932;6.780;2023-03-04T02:46:49;6.50;88.50
9984;DHT22;16737;50.932;6.780;2023-03-04T02:49:17;6.50;88.40
9984;DHT22;16737;50.932;6.780;2023-03-04T02:51:46;6.50;88.50
9984;DHT22;16737;50.932;6.780;2023-03-04T02:54:18;6.50;88.50
9984;DHT22;16737;50.932;6.780;2023-03-04T02:56:49;6.50;88.50
9984;DHT22;16737;50.932;6.780;2023-03-04T02:59:18;6.50;88.70
9984;DHT22;16737;50.932;6.780;2023-03-04T03:01:47;6.50;88.50
9984;DHT22;16737;50.932;6.780;2023-03-04T03:04:14;6.60;88.70
9984;DHT22;16737;50.932;6.780;2023-03-04T03:06:42;6.60;88.60
9984;DHT22;16737;50.932;6.780;2023-03-04T03:09:09;6.60;88.60
9984;DHT22;16737;50.932;6.780;2023-03-04T03:11:36;6.60;88.60
9984;DHT22;16737;50.932;6.780;2023-03-04T03:14:05;6.60;88.70
9984;DHT22;16737;50.932;6.780;2023-03-04T03:16:32;6.60;88.80
9984;DHT22;16737;50.932;6.780;2023-03-04T03:19:03;6.60;88.70
9984;DHT22;16737;50.932;6.780;2023-03-04T03:21:30;6.60;88.80
9984;DHT22;16737;50.932;6.780;2023-03-04T03:23:57;6.60;88.60
9984;DHT22;16737;50.932;6.780;2023-03-04T03:26:24;6.60;88.60
9984;DHT22;16737;50.932;6.780;2023-03-04T03:28:51;6.60;88.60
9984;DHT22;16737;50.932;6.780;2023-03-04T03:31:19;6.60;88.60
9984;DHT22;16737;50.932;6.780;2023-03-04T03:33:46;6.60;88.70
9984;DHT22;16737;50.932;6.780;2023-03-04T03:36:13;6.60;88.60
9984;DHT22;16737;50.932;6.780;2023-03-04T03:38:40;6.70;88.70
9984;DHT22;16737;50.932;6.780;2023-03-04T03:41:08;6.60;88.60
9984;DHT22;16737;50.932;6.780;2023-03-04T03:43:37;6.60;88.60
9984;DHT22;16737;50.932;6.780;2023-03-04T03:46:04;6.70;88.70
9984;DHT22;16737;50.932;6.780;2023-03-04T03:48:33;6.70;88.70
9984;DHT22;16737;50.932;6.780;2023-03-04T03:51:00;6.70;88.80
9984;DHT22;16737;50.932;6.780;2023-03-04T03:53:27;6.70;88.70
9984;DHT22;16737;50.932;6.780;2023-03-04T03:55:54;6.70;88.70
9984;DHT22;16737;50.932;6.780;2023-03-04T03:58:21;6.70;88.80
9984;DHT22;16737;50.932;6.780;2023-03-04T04:00:48;6.70;88.80
9984;DHT22;16737;50.932;6.780;2023-03-04T04:03:15;6.70;88.80
9984;DHT22;16737;50.932;6.780;2023-03-04T04:05:43;6.70;88.90
9984;DHT22;16737;50.932;6.780;2023-03-04T04:08:12;6.70;88.80
9984;DHT22;16737;50.932;6.780;2023-03-04T04:10:39;6.70;88.90
9984;DHT22;16737;50.932;6.780;2023-03-04T04:13:07;6.70;88.90
9984;DHT22;16737;50.932;6.780;2023-03-04T04:15:34;6.70;88.90
9984;DHT22;16737;50.932;6.780;2023-03-04T04:18:03;6.70;89.00
9984;DHT22;16737;50.932;6.780;2023-03-04T04:20:30;6.70;89.00
9984;DHT22;16737;50.932;6.780;2023-03-04T04:22:59;6.70;89.00
9984;DHT22;16737;50.932;6.780;2023-03-04T04:25:26;6.70;89.00
9984;DHT22;16737;50.932;6.780;2023-03-04T04:27:54;6.70;89.00
9984;DHT22;16737;50.932;6.780;2023-03-04T04:30:21;6.70;89.00
9984;DHT22;16737;50.932;6.780;2023-03-04T04:32:51;6.70;89.00
9984;DHT22;16737;50.932;6.780;2023-03-04T04:35:22;6.70;89.20
9984;DHT22;16737;50.932;6.780;2023-03-04T04:37:50;6.70;89.20
9984;DHT22;16737;50.932;6.780;2023-03-04T04:40:18;6.80;89.30
9984;DHT22;16737;50.932;6.780;2023-03-04T04:42:48;6.70;89.30
9984;DHT22;16737;50.932;6.780;2023-03-04T04:45:16;6.80;89.20
9984;DHT22;16737;50.932;6.780;2023-03-04T04:47:43;6.80;89.40
9984;DHT22;16737;50.932;6.780;2023-03-04T04:50:14;6.80;89.40
9984;DHT22;16737;50.932;6.780;2023-03-04T04:52:47;6.80;89.50
9984;DHT22;16737;50.932;6.780;2023-03-04T04:55:16;6.80;89.40
9984;DHT22;16737;50.932;6.780;2023-03-04T04:57:54;6.90;89.40
9984;DHT22;16737;50.932;6.780;2023-03-04T05:00:21;6.90;89.40
9984;DHT22;16737;50.932;6.780;2023-03-04T05:02:50;6.90;89.40
9984;DHT22;16737;50.932;6.780;2023-03-04T05:05:18;6.90;89.50
9984;DHT22;16737;50.932;6.780;2023-03-04T05:07:45;7.00;89.60
9984;DHT22;16737;50.932;6.780;2023-03-04T05:10:12;7.00;89.60
9984;DHT22;16737;50.932;6.780;2023-03-04T05:12:43;7.00;89.60
9984;DHT22;16737;50.932;6.780;2023-03-04T05:15:17;7.00;89.70
9984;DHT22;16737;50.932;6.780;2023-03-04T05:17:47;7.10;89.70
9984;DHT22;16737;50.932;6.780;2023-03-04T05:20:14;7.10;89.60
9984;DHT22;16737;50.932;6.780;2023-03-04T05:22:41;7.10;89.50
9984;DHT22;16737;50.932;6.780;2023-03-04T05:25:08;7.10;89.50
9984;DHT22;16737;50.932;6.780;2023-03-04T05:27:36;7.20;89.60
9984;DHT22;16737;50.932;6.780;2023-03-04T05:30:05;7.20;89.60
9984;DHT22;16737;50.932;6.780;2023-03-04T05:32:33;7.20;89.60
9984;DHT22;16737;50.932;6.780;2023-03-04T05:35:00;7.30;89.50
9984;DHT22;16737;50.932;6.780;2023-03-04T05:37:28;7.30;89.50
9984;DHT22;16737;50.932;6.780;2023-03-04T05:39:55;7.30;89.50
9984;DHT22;16737;50.932;6.780;2023-03-04T05:42:21;7.30;89.50
9984;DHT22;16737;50.932;6.780;2023-03-04T05:44:49;7.30;89.40
9984;DHT22;16737;50.932;6.780;2023-03-04T05:47:22;7.40;89.50
9984;DHT22;16737;50.932;6.780;2023-03-04T05:49:49;7.40;89.50
9984;DHT22;16737;50.932;6.780;2023-03-04T05:52:19;7.40;89.50
9984;DHT22;16737;50.932;6.780;2023-03-04T05:54:49;7.40;89.50
9984;DHT22;16737;50.932;6.780;2023-03-04T05:57:16;7.40;89.50
9984;DHT22;16737;50.932;6.780;2023-03-04T05:59:46;7.50;89.50
9984;DHT22;16737;50.932;6.780;2023-03-04T06:02:13;7.50;89.50
9984;DHT22;16737;50.932;6.780;2023-03-04T06:04:42;7.50;89.40
9984;DHT22;16737;50.932;6.780;2023-03-04T06:07:09;7.50;89.60
9984;DHT22;16737;50.932;6.780;2023-03-04T06:09:36;7.50;89.40
9984;DHT22;16737;50.932;6.780;2023-03-04T06:12:04;7.50;89.40
9984;DHT22;16737;50.932;6.780;2023-03-04T06:14:31;7.50;89.30
9984;DHT22;16737;50.932;6.780;2023-03-04T06:17:00;7.50;89.30
9984;DHT22;16737;50.932;6.780;2023-03-04T06:19:27;7.60;89.40
9984;DHT22;16737;50.932;6.780;2023-03-04T06:21:56;7.60;89.40
9984;DHT22;16737;50.932;6.780;2023-03-04T06:24:23;7.60;89.40
9984;DHT22;16737;50.932;6.780;2023-03-04T06:26:50;7.60;89.40
9984;DHT22;16737;50.932;6.780;2023-03-04T06:29:17;7.60;89.40
9984;DHT22;16737;50.932;6.780;2023-03-04T06:31:44;7.60;89.40
9984;DHT22;16737;50.932;6.780;2023-03-04T06:34:11;7.60;89.40
9984;DHT22;16737;50.932;6.780;2023-03-04T06:36:38;7.60;89.30
9984;DHT22;16737;50.932;6.780;2023-03-04T06:39:10;7.60;89.40
9984;DHT22;16737;50.932;6.780;2023-03-04T06:41:37;7.60;89.50
9984;DHT22;16737;50.932;6.780;2023-03-04T06:44:04;7.60;89.40
9984;DHT22;16737;50.932;6.780;2023-03-04T06:46:32;7.70;89.60
9984;DHT22;16737;50.932;6.780;2023-03-04T06:49:00;7.70;89.60
9984;DHT22;16737;50.932;6.780;2023-03-04T06:51:28;7.70;89.50
9984;DHT22;16737;50.932;6.780;2023-03-04T06:53:56;7.70;89.50
9984;DHT22;16737;50.932;6.780;2023-03-04T06:56:24;7.70;89.50
9984;DHT22;16737;50.932;6.780;2023-03-04T06:58:53;7.70;89.50
9984;DHT22;16737;50.932;6.780;2023-03-04T07:01:27;7.70;89.50
9984;DHT22;16737;50.932;6.780;2023-03-04T07:03:55;7.70;89.40
9984;DHT22;16737;50.932;6.780;2023-03-04T07:06:25;7.70;89.40
9984;DHT22;16737;50.932;6.780;2023-03-04T07:08:54;7.70;89.50
9984;DHT22;16737;50.932;6.780;2023-03-04T07:11:22;7.80;89.60
9984;DHT22;16737;50.932;6.780;2023-03-04T07:13:51;7.80;89.60
9984;DHT22;16737;50.932;6.780;2023-03-04T07:16:20;7.80;89.60
9984;DHT22;16737;50.932;6.780;2023-03-04T07:18:48;7.80;89.60
9984;DHT22;16737;50.932;6.780;2023-03-04T07:21:16;7.80;89.60
9984;DHT22;16737;50.932;6.780;2023-03-04T07:23:44;7.80;89.60
9984;DHT22;16737;50.932;6.780;2023-03-04T07:26:11;7.80;89.60
9984;DHT22;16737;50.932;6.780;2023-03-04T07:28:40;7.80;89.50
9984;DHT22;16737;50.932;6.780;2023-03-04T07:31:12;7.80;89.50
9984;DHT22;16737;50.932;6.780;2023-03-04T07:33:45;7.80;89.50
9984;DHT22;16737;50.932;6.780;2023-03-04T07:36:12;7.80;89.40
9984;DHT22;16737;50.932;6.780;2023-03-04T07:38:42;7.80;89.40
9984;DHT22;16737;50.932;6.780;2023-03-04T07:41:10;7.90;89.50
9984;DHT22;16737;50.932;6.780;2023-03-04T07:43:37;7.80;89.30
9984;DHT22;16737;50.932;6.780;2023-03-04T07:46:06;7.90;89.40
9984;DHT22;16737;50.932;6.780;2023-03-04T07:48:33;7.90;89.50
9984;DHT22;16737;50.932;6.780;2023-03-04T07:51:03;7.90;89.50
9984;DHT22;16737;50.932;6.780;2023-03-04T07:53:32;7.90;89.50
9984;DHT22;16737;50.932;6.780;2023-03-04T07:56:00;7.90;90.10
9984;DHT22;16737;50.932;6.780;2023-03-04T07:58:27;7.90;89.50
9984;DHT22;16737;50.932;6.780;2023-03-04T08:00:54;7.90;89.50
9984;DHT22;16737;50.932;6.780;2023-03-04T08:03:22;7.90;89.50
9984;DHT22;16737;50.932;6.780;2023-03-04T08:05:50;8.00;89.60
9984;DHT22;16737;50.932;6.780;2023-03-04T08:08:17;8.00;89.60
9984;DHT22;16737;50.932;6.780;2023-03-04T08:10:44;8.00;89.60
9984;DHT22;16737;50.932;6.780;2023-03-04T08:13:11;8.00;89.60
9984;DHT22;16737;50.932;6.780;2023-03-04T08:15:40;8.00;89.60
9984;DHT22;16737;50.932;6.780;2023-03-04T08:18:08;8.00;89.60
9984;DHT22;16737;50.932;6.780;2023-03-04T08:20:36;8.10;89.70
9984;DHT22;16737;50.932;6.780;2023-03-04T08:23:07;8.10;89.70
9984;DHT22;16737;50.932;6.780;2023-03-04T08:25:37;8.10;89.70
9984;DHT22;16737;50.932;6.780;2023-03-04T08:28:05;8.10;89.80
9984;DHT22;16737;50.932;6.780;2023-03-04T08:30:32;8.20;89.90
9984;DHT22;16737;50.932;6.780;2023-03-04T08:33:01;8.20;90.00
9984;DHT22;16737;50.932;6.780;2023-03-04T08:35:28;8.20;90.00
9984;DHT22;16737;50.932;6.780;2023-03-04T08:37:57;8.30;90.00
9984;DHT22;16737;50.932;6.780;2023-03-04T08:40:24;8.30;90.00
9984;DHT22;16737;50.932;6.780;2023-03-04T08:42:51;8.30;90.00
9984;DHT22;16737;50.932;6.780;2023-03-04T08:45:18;8.30;90.10
9984;DHT22;16737;50.932;6.780;2023-03-04T08:47:45;8.30;90.00
9984;DHT22;16737;50.932;6.780;2023-03-04T08:50:12;8.40;90.10
9984;DHT22;16737;50.932;6.780;2023-03-04T08:52:39;8.40;90.20
9984;DHT22;16737;50.932;6.780;2023-03-04T08:55:08;8.40;90.20
9984;DHT22;16737;50.932;6.780;2023-03-04T08:57:35;8.40;90.30
9984;DHT22;16737;50.932;6.780;2023-03-04T09:00:03;8.50;90.40
9984;DHT22;16737;50.932;6.780;2023-03-04T09:02:31;8.50;90.40
9984;DHT22;16737;50.932;6.780;2023-03-04T09:04:58;8.50;90.40
9984;DHT22;16737;50.932;6.780;2023-03-04T09:07:25;8.60;90.40
9984;DHT22;16737;50.932;6.780;2023-03-04T09:09:53;8.60;90.40
9984;DHT22;16737;50.932;6.780;2023-03-04T09:12:22;8.60;90.50
9984;DHT22;16737;50.932;6.780;2023-03-04T09:14:48;8.60;90.50
9984;DHT22;16737;50.932;6.780;2023-03-04T09:17:15;8.70;90.50
9984;DHT22;16737;50.932;6.780;2023-03-04T09:19:43;8.70;90.60
9984;DHT22;16737;50.932;6.780;2023-03-04T09:22:10;8.70;90.50
9984;DHT22;16737;50.932;6.780;2023-03-04T09:24:39;8.80;90.60
9984;DHT22;16737;50.932;6.780;2023-03-04T09:27:08;8.80;90.60
9984;DHT22;16737;50.932;6.780;2023-03-04T09:29:36;8.80;90.60
9984;DHT22;16737;50.932;6.780;2023-03-04T09:32:04;8.90;90.50
9984;DHT22;16737;50.932;6.780;2023-03-04T09:34:31;8.90;90.50
9984;DHT22;16737;50.932;6.780;2023-03-04T09:36:58;9.00;90.50
9984;DHT22;16737;50.932;6.780;2023-03-04T09:39:25;9.00;90.50
9984;DHT22;16737;50.932;6.780;2023-03-04T09:41:55;9.00;90.40
9984;DHT22;16737;50.932;6.780;2023-03-04T09:44:26;9.10;90.40
9984;DHT22;16737;50.932;6.780;2023-03-04T09:47:00;9.10;90.40
9984;DHT22;16737;50.932;6.780;2023-03-04T09:49:29;9.20;90.40
9984;DHT22;16737;50.932;6.780;2023-03-04T09:52:02;9.20;90.30
9984;DHT22;16737;50.932;6.780;2023-03-04T09:54:53;9.20;90.30
9984;DHT22;16737;50.932;6.780;2023-03-04T09:57:49;9.30;90.30
9984;DHT22;16737;50.932;6.780;2023-03-04T10:00:21;9.30;90.20
9984;DHT22;16737;50.932;6.780;2023-03-04T10:03:04;9.40;90.10
9984;DHT22;16737;50.932;6.780;2023-03-04T10:05:41;9.40;90.20
9984;DHT22;16737;50.932;6.780;2023-03-04T10:08:24;9.40;90.10
9984;DHT22;16737;50.932;6.780;2023-03-04T10:10:59;9.40;90.10
9984;DHT22;16737;50.932;6.780;2023-03-04T10:13:34;9.40;90.10
9984;DHT22;16737;50.932;6.780;2023-03-04T10:16:10;9.40;90.20
9984;DHT22;16737;50.932;6.780;2023-03-04T10:18:48;9.40;90.20
9984;DHT22;16737;50.932;6.780;2023-03-04T10:21:25;9.40;90.20
9984;DHT22;16737;50.932;6.780;2023-03-04T10:23:56;9.40;90.20
9984;DHT22;16737;50.932;6.780;2023-03-04T10:26:28;9.50;90.20
9984;DHT22;16737;50.932;6.780;2023-03-04T10:28:57;9.50;90.20
9984;DHT22;16737;50.932;6.780;2023-03-04T10:31:32;9.50;90.20
9984;DHT22;16737;50.932;6.780;2023-03-04T10:34:02;9.50;90.20
9984;DHT22;16737;50.932;6.780;2023-03-04T10:36:38;9.50;90.20
9984;DHT22;16737;50.932;6.780;2023-03-04T10:39:18;9.50;90.30
9984;DHT22;16737;50.932;6.780;2023-03-04T10:41:55;9.50;90.30
9984;DHT22;16737;50.932;6.780;2023-03-04T10:44:25;9.60;90.40
9984;DHT22;16737;50.932;6.780;2023-03-04T10:46:54;9.60;90.30
9984;DHT22;16737;50.932;6.780;2023-03-04T10:49:25;9.60;90.40
9984;DHT22;16737;50.932;6.780;2023-03-04T10:51:56;9.60;90.40
9984;DHT22;16737;50.932;6.780;2023-03-04T10:54:30;9.60;90.40
9984;DHT22;16737;50.932;6.780;2023-03-04T10:57:03;9.70;90.50
9984;DHT22;16737;50.932;6.780;2023-03-04T10:59:40;9.70;90.50
9984;DHT22;16737;50.932;6.780;2023-03-04T11:02:15;9.80;90.60
9984;DHT22;16737;50.932;6.780;2023-03-04T11:04:54;9.80;90.60
9984;DHT22;16737;50.932;6.780;2023-03-04T11:07:38;9.90;90.60
9984;DHT22;16737;50.932;6.780;2023-03-04T11:10:08;10.00;90.10
9984;DHT22;16737;50.932;6.780;2023-03-04T11:12:36;10.00;90.00
9984;DHT22;16737;50.932;6.780;2023-03-04T11:15:17;10.10;90.10
9984;DHT22;16737;50.932;6.780;2023-03-04T11:17:50;10.10;90.00
9984;DHT22;16737;50.932;6.780;2023-03-04T11:20:28;10.20;90.00
9984;DHT22;16737;50.932;6.780;2023-03-04T11:23:03;10.20;89.70
9984;DHT22;16737;50.932;6.780;2023-03-04T11:25:34;10.30;89.80
9984;DHT22;16737;50.932;6.780;2023-03-04T11:28:05;10.30;89.70
9984;DHT22;16737;50.932;6.780;2023-03-04T11:30:43;10.30;89.70
9984;DHT22;16737;50.932;6.780;2023-03-04T11:33:16;10.30;89.60
9984;DHT22;16737;50.932;6.780;2023-03-04T11:36:12;10.40;89.30
9984;DHT22;16737;50.932;6.780;2023-03-04T11:38:50;10.40;89.00
9984;DHT22;16737;50.932;6.780;2023-03-04T11:41:22;10.40;89.00
9984;DHT22;16737;50.932;6.780;2023-03-04T11:43:52;10.40;89.00
9984;DHT22;16737;50.932;6.780;2023-03-04T11:46:48;10.40;89.00
9984;DHT22;16737;50.932;6.780;2023-03-04T11:49:53;10.40;88.90
9984;DHT22;16737;50.932;6.780;2023-03-04T11:52:53;10.40;88.90
9984;DHT22;16737;50.932;6.780;2023-03-04T11:55:40;10.40;88.90
9984;DHT22;16737;50.932;6.780;2023-03-04T11:58:35;10.40;88.80
9984;DHT22;16737;50.932;6.780;2023-03-04T12:01:14;10.40;88.70
9984;DHT22;16737;50.932;6.780;2023-03-04T12:04:03;10.30;88.60
9984;DHT22;16737;50.932;6.780;2023-03-04T12:06:47;10.30;88.80
9984;DHT22;16737;50.932;6.780;2023-03-04T12:09:38;10.30;88.90
9984;DHT22;16737;50.932;6.780;2023-03-04T12:12:29;10.40;89.00
9984;DHT22;16737;50.932;6.780;2023-03-04T12:15:16;10.40;89.00
9984;DHT22;16737;50.932;6.780;2023-03-04T12:17:58;10.40;88.90
9984;DHT22;16737;50.932;6.780;2023-03-04T12:20:48;10.40;88.70
9984;DHT22;16737;50.932;6.780;2023-03-04T12:23:40;10.40;88.70
9984;DHT22;16737;50.932;6.780;2023-03-04T12:26:24;10.40;88.80
9984;DHT22;16737;50.932;6.780;2023-03-04T12:29:03;10.40;88.90
9984;DHT22;16737;50.932;6.780;2023-03-04T12:31:39;10.40;88.90
9984;DHT22;16737;50.932;6.780;2023-03-04T12:34:27;10.50;89.00
9984;DHT22;16737;50.932;6.780;2023-03-04T12:37:21;10.50;88.90
9984;DHT22;16737;50.932;6.780;2023-03-04T12:40:05;10.50;88.90
9984;DHT22;16737;50.932;6.780;2023-03-04T12:42:55;10.60;89.70
9984;DHT22;16737;50.932;6.780;2023-03-04T12:45:40;10.60;88.80
9984;DHT22;16737;50.932;6.780;2023-03-04T12:48:20;10.60;88.90
9984;DHT22;16737;50.932;6.780;2023-03-04T12:51:06;10.70;88.90
9984;DHT22;16737;50.932;6.780;2023-03-04T12:53:50;10.70;88.90
9984;DHT22;16737;50.932;6.780;2023-03-04T12:56:30;10.70;88.90
9984;DHT22;16737;50.932;6.780;2023-03-04T12:59:05;10.70;88.80
9984;DHT22;16737;50.932;6.780;2023-03-04T13:01:43;10.80;88.90
9984;DHT22;16737;50.932;6.780;2023-03-04T13:04:19;10.80;88.90
9984;DHT22;16737;50.932;6.780;2023-03-04T13:07:06;10.80;88.90
9984;DHT22;16737;50.932;6.780;2023-03-04T13:09:42;10.90;89.00
9984;DHT22;16737;50.932;6.780;2023-03-04T13:12:16;10.90;89.00
9984;DHT22;16737;50.932;6.780;2023-03-04T13:15:17;10.90;89.00
9984;DHT22;16737;50.932;6.780;2023-03-04T13:17:54;11.00;88.90
9984;DHT22;16737;50.932;6.780;2023-03-04T13:20:31;11.00;89.00
9984;DHT22;16737;50.932;6.780;2023-03-04T13:23:01;11.00;88.90
9984;DHT22;16737;50.932;6.780;2023-03-04T13:25:33;11.10;88.90
9984;DHT22;16737;50.932;6.780;2023-03-04T13:28:22;11.10;88.90
9984;DHT22;16737;50.932;6.780;2023-03-04T13:31:21;11.10;88.80
9984;DHT22;16737;50.932;6.780;2023-03-04T13:33:56;11.10;88.60
9984;DHT22;16737;50.932;6.780;2023-03-04T13:36:34;11.20;88.70
9984;DHT22;16737;50.932;6.780;2023-03-04T13:39:31;11.20;88.40
9984;DHT22;16737;50.932;6.780;2023-03-04T13:42:00;11.20;88.30
9984;DHT22;16737;50.932;6.780;2023-03-04T13:44:58;11.20;88.40
9984;DHT22;16737;50.932;6.780;2023-03-04T13:47:45;11.20;88.40
9984;DHT22;16737;50.932;6.780;2023-03-04T13:50:43;11.20;88.60
9984;DHT22;16737;50.932;6.780;2023-03-04T13:53:39;11.20;88.40
9984;DHT22;16737;50.932;6.780;2023-03-04T13:56:26;11.20;88.40
9984;DHT22;16737;50.932;6.780;2023-03-04T13:59:10;11.10;88.40
9984;DHT22;16737;50.932;6.780;2023-03-04T14:01:59;11.10;88.40
9984;DHT22;16737;50.932;6.780;2023-03-04T14:04:32;11.10;88.40
9984;DHT22;16737;50.932;6.780;2023-03-04T14:07:03;11.10;88.30
9984;DHT22;16737;50.932;6.780;2023-03-04T14:09:56;11.10;88.30
9984;DHT22;16737;50.932;6.780;2023-03-04T14:12:26;11.10;88.30
9984;DHT22;16737;50.932;6.780;2023-03-04T14:14:56;11.00;88.10
9984;DHT22;16737;50.932;6.780;2023-03-04T14:17:28;11.00;88.10
9984;DHT22;16737;50.932;6.780;2023-03-04T14:19:58;10.90;88.10
9984;DHT22;16737;50.932;6.780;2023-03-04T14:22:28;10.90;88.20
9984;DHT22;16737;50.932;6.780;2023-03-04T14:24:57;10.90;88.20
9984;DHT22;16737;50.932;6.780;2023-03-04T14:27:27;10.80;88.30
9984;DHT22;16737;50.932;6.780;2023-03-04T14:29:55;10.80;88.30
9984;DHT22;16737;50.932;6.780;2023-03-04T14:32:23;10.80;88.40
9984;DHT22;16737;50.932;6.780;2023-03-04T14:34:55;10.70;88.30
9984;DHT22;16737;50.932;6.780;2023-03-04T14:37:33;10.70;88.40
9984;DHT22;16737;50.932;6.780;2023-03-04T14:40:18;10.70;88.50
9984;DHT22;16737;50.932;6.780;2023-03-04T14:42:49;10.70;88.60
9984;DHT22;16737;50.932;6.780;2023-03-04T14:45:22;10.70;88.50
9984;DHT22;16737;50.932;6.780;2023-03-04T14:47:53;10.60;88.40
9984;DHT22;16737;50.932;6.780;2023-03-04T14:50:24;10.60;88.50
9984;DHT22;16737;50.932;6.780;2023-03-04T14:53:12;10.60;88.60
9984;DHT22;16737;50.932;6.780;2023-03-04T14:55:54;10.60;88.90
9984;DHT22;16737;50.932;6.780;2023-03-04T14:58:25;10.50;88.90
9984;DHT22;16737;50.932;6.780;2023-03-04T15:01:13;10.50;88.60
9984;DHT22;16737;50.932;6.780;2023-03-04T15:03:44;10.50;88.80
9984;DHT22;16737;50.932;6.780;2023-03-04T15:06:21;10.40;88.50
9984;DHT22;16737;50.932;6.780;2023-03-04T15:09:01;10.40;88.60
9984;DHT22;16737;50.932;6.780;2023-03-04T15:11:32;10.40;88.60
9984;DHT22;16737;50.932;6.780;2023-03-04T15:14:42;10.40;88.60
9984;DHT22;16737;50.932;6.780;2023-03-04T15:17:23;10.30;88.80
9984;DHT22;16737;50.932;6.780;2023-03-04T15:20:19;10.30;88.80
9984;DHT22;16737;50.932;6.780;2023-03-04T15:23:03;10.30;88.90
9984;DHT22;16737;50.932;6.780;2023-03-04T15:25:33;10.20;88.80
9984;DHT22;16737;50.932;6.780;2023-03-04T15:28:02;10.20;88.70
9984;DHT22;16737;50.932;6.780;2023-03-04T15:30:31;10.20;88.70
9984;DHT22;16737;50.932;6.780;2023-03-04T15:32:59;10.10;88.80
9984;DHT22;16737;50.932;6.780;2023-03-04T15:35:28;10.10;88.90
9984;DHT22;16737;50.932;6.780;2023-03-04T15:37:57;10.10;89.00
9984;DHT22;16737;50.932;6.780;2023-03-04T15:40:30;10.10;89.00
9984;DHT22;16737;50.932;6.780;2023-03-04T15:42:59;10.10;89.20
9984;DHT22;16737;50.932;6.780;2023-03-04T15:45:29;10.10;89.20
9984;DHT22;16737;50.932;6.780;2023-03-04T15:48:00;10.00;89.20
9984;DHT22;16737;50.932;6.780;2023-03-04T15:50:33;10.00;89.30
9984;DHT22;16737;50.932;6.780;2023-03-04T15:53:02;10.00;89.30
9984;DHT22;16737;50.932;6.780;2023-03-04T15:55:34;10.00;89.50
9984;DHT22;16737;50.932;6.780;2023-03-04T15:58:02;9.90;90.30
9984;DHT22;16737;50.932;6.780;2023-03-04T16:00:29;9.90;90.30
9984;DHT22;16737;50.932;6.780;2023-03-04T16:02:56;9.90;90.30
9984;DHT22;16737;50.932;6.780;2023-03-04T16:05:23;9.80;90.40
9984;DHT22;16737;50.932;6.780;2023-03-04T16:07:51;9.80;90.40
9984;DHT22;16737;50.932;6.780;2023-03-04T16:10:23;9.80;90.60
9984;DHT22;16737;50.932;6.780;2023-03-04T16:12:53;9.70;90.70
9984;DHT22;16737;50.932;6.780;2023-03-04T16:15:22;9.70;90.80
9984;DHT22;16737;50.932;6.780;2023-03-04T16:17:50;9.70;90.80
9984;DHT22;16737;50.932;6.780;2023-03-04T16:20:20;9.70;90.80
9984;DHT22;16737;50.932;6.780;2023-03-04T16:22:51;9.70;90.90
9984;DHT22;16737;50.932;6.780;2023-03-04T16:25:21;9.70;90.90
9984;DHT22;16737;50.932;6.780;2023-03-04T16:27:50;9.70;90.90